Clarkson, New York
Current Conditions -  °F | °C
As of 12:54 PM on Saturday 20 Dec 2014 (Local Time) from KROC Reporting Station
Overcast Overcast  
Wind Chill: 31°   Ceiling: 2100
Heat Index: 31°   Visibility: 10mi
Dew Point: 21°   Wind: 3mph
Humidity: 67%   Direction: 240°WSW
Pressure: 30.26"   Gusts: NA
Location:  43.23°N, 77.93°W
Report Text: KROC 201754Z 24003KT 10SM OVC021 M01/M06 A3026 RMK AO2 SLP258 T10061061 11006 21022 58014
Loading
Personal Weather Stations






























Interactive Weather Map New forecast layout! Learn more

10-Day Weather Forecast

Advertisements
Track Severe Weather on mobile